createdAt,value
2022-08-18T00:00:24.428Z,26.87
2022-08-18T00:03:27.756Z,26.88
2022-08-18T00:06:21.098Z,26.90
2022-08-18T00:09:11.268Z,26.92
2022-08-18T00:11:59.013Z,26.94
2022-08-18T00:14:48.079Z,26.95
2022-08-18T00:17:37.066Z,26.96
2022-08-18T00:20:25.931Z,26.96
2022-08-18T00:23:13.992Z,27.00
2022-08-18T00:26:04.230Z,27.02
2022-08-18T00:28:52.480Z,27.02
2022-08-18T00:31:40.438Z,27.03
2022-08-18T00:34:28.557Z,27.02
2022-08-18T00:37:23.069Z,27.05
2022-08-18T00:40:22.268Z,27.05
2022-08-18T00:43:21.053Z,27.01
2022-08-18T00:46:15.661Z,27.00
2022-08-18T00:49:06.445Z,26.96
2022-08-18T00:51:55.306Z,26.91
2022-08-18T00:54:45.315Z,26.90
2022-08-18T00:57:33.584Z,26.89
2022-08-18T01:00:22.602Z,26.89
2022-08-18T01:03:15.807Z,26.89
2022-08-18T01:06:27.523Z,26.86
2022-08-18T01:09:18.035Z,26.86
2022-08-18T01:12:43.839Z,26.89
2022-08-18T01:15:28.162Z,26.93
2022-08-18T01:18:37.273Z,26.95
2022-08-18T01:21:48.868Z,26.92
2022-08-18T01:24:56.875Z,26.89
2022-08-18T01:27:45.592Z,26.88
2022-08-18T01:30:51.249Z,26.91
2022-08-18T01:33:44.187Z,26.90
2022-08-18T01:36:37.755Z,26.87
2022-08-18T01:41:24.294Z,26.90
2022-08-18T01:42:35.895Z,26.92
2022-08-18T01:45:24.429Z,26.92
2022-08-18T01:48:12.506Z,26.92
2022-08-18T01:51:07.782Z,26.92
2022-08-18T01:53:56.881Z,26.91
2022-08-18T01:56:44.822Z,26.92
2022-08-18T01:59:32.868Z,26.93
2022-08-18T02:02:26.387Z,26.90
2022-08-18T02:05:25.127Z,26.90
2022-08-18T02:08:13.473Z,26.91
2022-08-18T02:11:03.490Z,26.94
2022-08-18T02:13:51.500Z,26.95
2022-08-18T02:16:39.643Z,26.97
2022-08-18T02:19:27.988Z,26.98
2022-08-18T02:22:20.905Z,26.94
2022-08-18T02:25:10.323Z,26.87
2022-08-18T02:27:58.662Z,26.85
2022-08-18T02:30:46.707Z,26.81
2022-08-18T02:33:35.390Z,26.80
2022-08-18T02:36:25.206Z,26.78
2022-08-18T02:39:14.205Z,26.77
2022-08-18T02:42:01.835Z,26.75
2022-08-18T02:44:50.305Z,26.78
2022-08-18T02:47:38.635Z,26.80
2022-08-18T02:50:27.188Z,26.82
2022-08-18T02:53:22.164Z,26.83
2022-08-18T02:56:39.802Z,26.81
2022-08-18T02:59:31.930Z,26.77
2022-08-18T03:02:22.595Z,26.76
2022-08-18T03:05:14.622Z,26.73
2022-08-18T03:08:03.459Z,26.70
2022-08-18T03:10:53.138Z,26.69
2022-08-18T03:13:41.180Z,26.67
2022-08-18T03:16:33.117Z,26.64
2022-08-18T03:19:26.209Z,26.62
2022-08-18T03:22:28.103Z,26.61
2022-08-18T03:25:18.019Z,26.61
2022-08-18T03:28:07.232Z,26.61
2022-08-18T03:30:55.930Z,26.61
2022-08-18T03:33:46.218Z,26.62
2022-08-18T03:36:35.553Z,26.66
2022-08-18T03:39:23.886Z,26.68
2022-08-18T03:42:11.793Z,26.68
2022-08-18T03:44:59.852Z,26.66
2022-08-18T03:47:48.055Z,26.65
2022-08-18T03:50:36.119Z,26.63
2022-08-18T03:53:23.958Z,26.66
2022-08-18T03:56:20.696Z,26.67
2022-08-18T03:59:14.979Z,26.72
2022-08-18T04:02:05.200Z,26.76
2022-08-18T04:04:53.650Z,26.78
2022-08-18T04:07:43.310Z,26.82
2022-08-18T04:10:32.274Z,26.84
2022-08-18T04:13:20.112Z,26.84
2022-08-18T04:16:09.291Z,26.86
2022-08-18T04:19:02.134Z,26.93
2022-08-18T04:21:53.869Z,26.91
2022-08-18T04:24:42.623Z,26.93
2022-08-18T04:27:33.836Z,26.90
2022-08-18T04:30:21.971Z,26.91
2022-08-18T04:33:09.707Z,26.96
2022-08-18T04:35:57.483Z,26.98
2022-08-18T04:38:45.685Z,27.05
2022-08-18T04:41:34.097Z,27.13
2022-08-18T04:44:22.294Z,27.18
2022-08-18T04:47:10.422Z,27.23
2022-08-18T04:49:58.770Z,27.24
2022-08-18T04:53:06.780Z,27.35
2022-08-18T04:55:56.306Z,27.36
2022-08-18T04:58:44.318Z,27.40
2022-08-18T05:01:41.368Z,27.54
2022-08-18T05:04:30.522Z,27.67
2022-08-18T05:07:25.834Z,27.75
2022-08-18T05:10:17.915Z,27.86
2022-08-18T05:13:06.859Z,28.04
2022-08-18T05:16:09.801Z,28.28
2022-08-18T05:19:00.046Z,28.54
2022-08-18T05:21:52.290Z,28.70
2022-08-18T05:24:40.392Z,28.86
2022-08-18T05:27:36.052Z,29.03
2022-08-18T05:30:24.249Z,28.41
2022-08-18T05:33:12.197Z,27.53
2022-08-18T05:36:12.638Z,27.64
2022-08-18T05:39:18.485Z,28.08
2022-08-18T05:42:20.216Z,28.43
2022-08-18T05:45:16.030Z,28.76
2022-08-18T05:48:04.623Z,28.73
2022-08-18T05:50:52.967Z,28.07
2022-08-18T05:54:00.976Z,28.15
2022-08-18T05:56:53.382Z,29.14
2022-08-18T05:59:43.278Z,29.68
2022-08-18T06:02:52.185Z,29.37
2022-08-18T06:06:01.601Z,29.94
2022-08-18T06:09:22.669Z,30.17
2022-08-18T06:12:47.230Z,29.81
2022-08-18T06:15:53.558Z,29.61
2022-08-18T06:19:03.220Z,30.00
2022-08-18T06:22:17.588Z,29.87
2022-08-18T06:25:20.974Z,29.59
2022-08-18T06:28:15.931Z,29.30
2022-08-18T06:31:12.862Z,29.21
2022-08-18T06:34:24.724Z,29.28
2022-08-18T06:37:30.024Z,30.36
2022-08-18T06:40:18.482Z,30.78
2022-08-18T06:43:13.375Z,30.55
2022-08-18T06:46:03.428Z,30.42
2022-08-18T06:48:55.348Z,30.39
2022-08-18T06:51:43.330Z,30.34
2022-08-18T06:54:31.513Z,30.23
2022-08-18T06:57:34.770Z,30.22
2022-08-18T07:00:27.941Z,30.25
2022-08-18T07:03:23.671Z,30.26
2022-08-18T07:06:21.676Z,30.36
2022-08-18T07:09:34.245Z,30.50
2022-08-18T07:12:32.749Z,30.69
2022-08-18T07:15:25.198Z,30.97
2022-08-18T07:18:17.440Z,31.46
2022-08-18T07:21:06.013Z,32.08
2022-08-18T07:24:27.855Z,32.62
2022-08-18T07:27:21.105Z,32.95
2022-08-18T07:30:26.592Z,33.02
2022-08-18T07:33:24.223Z,32.94
2022-08-18T07:36:15.206Z,32.94
2022-08-18T07:39:23.576Z,33.04
2022-08-18T07:42:53.722Z,33.12
2022-08-18T07:45:45.539Z,33.46
2022-08-18T07:48:39.643Z,33.81
2022-08-18T07:51:43.794Z,34.00
2022-08-18T07:54:59.552Z,34.04
2022-08-18T07:58:10.986Z,34.22
2022-08-18T08:01:20.197Z,34.28
2022-08-18T08:04:56.803Z,34.56
2022-08-18T08:08:01.884Z,35.31
2022-08-18T08:11:06.279Z,35.95
2022-08-18T08:14:02.891Z,36.45
2022-08-18T08:17:24.130Z,36.88
2022-08-18T08:20:44.137Z,37.21
2022-08-18T08:24:01.386Z,37.49
2022-08-18T08:27:34.511Z,37.73
2022-08-18T08:30:28.379Z,37.98
2022-08-18T08:33:31.988Z,38.40
2022-08-18T08:36:34.499Z,38.81
2022-08-18T08:39:34.308Z,39.21
2022-08-18T08:42:41.270Z,39.64
2022-08-18T08:45:48.654Z,39.87
2022-08-18T08:49:05.736Z,39.95
2022-08-18T08:52:03.698Z,39.88
2022-08-18T08:55:00.630Z,39.89
2022-08-18T08:58:10.188Z,39.70
2022-08-18T09:00:58.644Z,39.31
2022-08-18T09:04:21.482Z,39.44
2022-08-18T09:07:32.049Z,40.00
2022-08-18T09:11:06.700Z,40.56
2022-08-18T09:14:38.300Z,41.13
2022-08-18T09:17:53.857Z,41.57
2022-08-18T09:20:57.333Z,41.92
2022-08-18T09:23:52.137Z,42.29
2022-08-18T09:26:42.964Z,42.21
2022-08-18T09:29:45.989Z,41.63
2022-08-18T09:32:56.251Z,41.11
2022-08-18T09:36:25.914Z,40.75
2022-08-18T09:39:53.833Z,40.39
2022-08-18T09:43:08.990Z,40.11
2022-08-18T09:46:00.906Z,40.11
2022-08-18T09:48:48.812Z,39.91
2022-08-18T09:51:40.220Z,39.79
2022-08-18T09:54:32.907Z,39.77
2022-08-18T09:57:42.264Z,39.67
2022-08-18T10:00:33.670Z,39.67
2022-08-18T10:03:31.139Z,39.81
2022-08-18T10:09:44.101Z,39.59
2022-08-18T10:12:56.582Z,39.31
2022-08-18T10:16:15.781Z,39.02
2022-08-18T10:19:39.870Z,38.96
2022-08-18T10:22:46.920Z,38.79
2022-08-18T10:25:42.692Z,39.07
2022-08-18T10:29:26.319Z,39.46
2022-08-18T10:32:14.315Z,39.71
2022-08-18T10:35:03.036Z,39.88
2022-08-18T10:37:54.350Z,39.78
2022-08-18T10:40:58.590Z,39.73
2022-08-18T10:43:55.828Z,39.82
2022-08-18T10:46:50.101Z,40.14
2022-08-18T10:49:46.571Z,40.38
2022-08-18T10:52:47.170Z,40.39
2022-08-18T10:56:11.464Z,40.32
2022-08-18T10:59:49.042Z,40.38
2022-08-18T11:03:50.557Z,40.26
2022-08-18T11:06:28.969Z,40.09
2022-08-18T11:09:28.871Z,40.05
2022-08-18T11:12:39.537Z,39.74
2022-08-18T11:15:55.451Z,39.23
2022-08-18T11:18:49.771Z,38.56
2022-08-18T11:21:43.825Z,38.12
2022-08-18T11:24:35.586Z,37.91
2022-08-18T11:27:30.769Z,37.66
2022-08-18T11:30:19.505Z,37.42
2022-08-18T11:33:08.080Z,37.19
2022-08-18T11:39:13.982Z,36.49
2022-08-18T11:42:03.864Z,36.29
2022-08-18T11:44:52.091Z,36.18
2022-08-18T11:48:00.550Z,36.15
2022-08-18T11:50:59.860Z,36.13
2022-08-18T11:53:51.101Z,36.14
2022-08-18T11:56:44.502Z,36.16
2022-08-18T11:59:53.117Z,36.20
2022-08-18T12:02:41.547Z,36.15
2022-08-18T12:09:37.167Z,35.24
2022-08-18T12:12:33.277Z,34.58
2022-08-18T12:18:43.511Z,33.80
2022-08-18T12:21:32.484Z,33.52
2022-08-18T12:24:36.797Z,33.20
2022-08-18T12:27:42.186Z,32.83
2022-08-18T12:30:32.277Z,32.59
2022-08-18T12:33:25.161Z,32.42
2022-08-18T12:36:15.739Z,32.26
2022-08-18T12:39:04.635Z,32.08
2022-08-18T12:41:53.542Z,31.95
2022-08-18T12:44:41.808Z,31.87
2022-08-18T12:47:32.218Z,31.77
2022-08-18T12:50:20.491Z,31.59
2022-08-18T12:53:29.609Z,31.41
2022-08-18T12:56:31.850Z,31.21
2022-08-18T12:59:20.281Z,31.04
2022-08-18T13:02:09.888Z,30.94
2022-08-18T13:04:59.624Z,30.86
2022-08-18T13:07:48.306Z,30.76
2022-08-18T13:10:45.990Z,30.66
2022-08-18T13:13:34.887Z,30.60
2022-08-18T13:16:30.732Z,30.53
2022-08-18T13:19:34.930Z,30.38
2022-08-18T13:22:23.908Z,30.30
2022-08-18T13:25:33.237Z,30.21
2022-08-18T13:28:30.466Z,30.07
2022-08-18T13:31:18.570Z,29.95
2022-08-18T13:34:11.812Z,29.86
2022-08-18T13:37:03.343Z,29.80
2022-08-18T13:39:52.914Z,29.82
2022-08-18T13:43:01.183Z,29.86
2022-08-18T13:45:53.497Z,29.88
2022-08-18T13:48:46.233Z,29.93
2022-08-18T13:51:34.874Z,29.92
2022-08-18T13:54:31.354Z,29.82
2022-08-18T13:57:20.271Z,29.71
2022-08-18T14:00:18.450Z,29.67
2022-08-18T14:03:31.048Z,29.65
2022-08-18T14:06:24.269Z,29.63
2022-08-18T14:09:19.604Z,29.60
2022-08-18T14:12:24.580Z,29.55
2022-08-18T14:15:16.912Z,29.49
2022-08-18T14:18:06.689Z,29.50
2022-08-18T14:21:23.640Z,29.52
2022-08-18T14:24:31.028Z,29.52
2022-08-18T14:27:37.833Z,29.46
2022-08-18T14:30:26.343Z,29.35
2022-08-18T14:36:18.141Z,29.15
2022-08-18T14:39:09.712Z,29.11
2022-08-18T14:42:00.033Z,29.07
2022-08-18T14:44:51.791Z,29.05
2022-08-18T14:48:07.429Z,29.08
2022-08-18T14:50:59.269Z,29.09
2022-08-18T14:53:51.313Z,29.11
2022-08-18T14:56:40.640Z,29.12
2022-08-18T14:59:34.399Z,29.10
2022-08-18T15:02:25.673Z,29.05
2022-08-18T15:05:19.598Z,29.01
2022-08-18T15:08:11.932Z,28.99
2022-08-18T15:11:00.403Z,28.98
2022-08-18T15:13:51.037Z,28.98
2022-08-18T15:16:39.878Z,28.96
2022-08-18T15:19:59.608Z,28.94
2022-08-18T15:23:06.052Z,28.91
2022-08-18T15:25:54.483Z,28.87
2022-08-18T15:28:42.477Z,28.81
2022-08-18T15:31:51.031Z,28.75
2022-08-18T15:34:46.040Z,28.68
2022-08-18T15:37:38.394Z,28.59
2022-08-18T15:40:35.874Z,28.49
2022-08-18T15:43:32.595Z,28.37
2022-08-18T15:46:20.694Z,28.24
2022-08-18T15:49:15.077Z,28.12
2022-08-18T15:52:04.288Z,28.02
2022-08-18T15:54:53.890Z,27.96
2022-08-18T15:57:43.035Z,27.89
2022-08-18T16:00:34.940Z,27.83
2022-08-18T16:03:24.171Z,27.75
2022-08-18T16:06:27.648Z,27.66
2022-08-18T16:09:19.701Z,27.60
2022-08-18T16:12:10.100Z,27.54
2022-08-18T16:15:04.125Z,27.50
2022-08-18T16:17:55.958Z,27.45
2022-08-18T16:20:45.306Z,27.39
2022-08-18T16:23:33.910Z,27.30
2022-08-18T16:26:25.150Z,27.24
2022-08-18T16:29:13.166Z,27.17
2022-08-18T16:32:01.212Z,27.08
2022-08-18T16:34:52.648Z,26.98
2022-08-18T16:37:41.538Z,26.85
2022-08-18T16:40:30.624Z,26.72
2022-08-18T16:43:18.699Z,26.59
2022-08-18T16:46:15.680Z,26.46
2022-08-18T16:49:08.320Z,26.33
2022-08-18T16:51:55.974Z,26.20
2022-08-18T16:54:44.582Z,26.07
2022-08-18T16:58:04.919Z,25.96
2022-08-18T17:01:18.844Z,26.32
2022-08-18T17:04:13.534Z,27.52
2022-08-18T17:07:05.859Z,27.88
2022-08-18T17:09:53.487Z,27.30
2022-08-18T17:12:41.457Z,26.81
2022-08-18T17:15:29.361Z,26.47
2022-08-18T17:18:17.803Z,26.22
2022-08-18T17:21:09.692Z,26.02
2022-08-18T17:24:01.268Z,25.84
2022-08-18T17:27:27.677Z,25.98
2022-08-18T17:30:21.765Z,27.19
2022-08-18T17:33:16.039Z,27.85
2022-08-18T17:36:10.951Z,28.01
2022-08-18T17:39:03.156Z,27.35
2022-08-18T17:42:09.328Z,26.77
2022-08-18T17:45:08.452Z,26.32
2022-08-18T17:48:12.994Z,25.99
2022-08-18T17:51:37.569Z,25.72
2022-08-18T17:54:46.104Z,25.98
2022-08-18T17:57:42.277Z,26.93
2022-08-18T18:00:31.595Z,27.47
2022-08-18T18:03:19.559Z,27.80
2022-08-18T18:06:32.387Z,27.82
2022-08-18T18:09:20.116Z,27.02
2022-08-18T18:12:24.563Z,26.43
2022-08-18T18:15:31.425Z,25.95
2022-08-18T18:18:45.150Z,25.91
2022-08-18T18:21:56.599Z,26.81
2022-08-18T18:25:07.979Z,27.20
2022-08-18T18:27:56.089Z,27.37
2022-08-18T18:30:46.611Z,27.30
2022-08-18T18:33:35.595Z,26.63
2022-08-18T18:36:47.421Z,26.04
2022-08-18T18:39:36.513Z,25.55
2022-08-18T18:42:30.911Z,25.49
2022-08-18T18:45:31.109Z,26.28
2022-08-18T18:48:45.145Z,26.92
2022-08-18T18:51:54.585Z,27.36
2022-08-18T18:55:07.803Z,27.64
2022-08-18T18:57:55.661Z,27.84
2022-08-18T19:00:53.539Z,27.79
2022-08-18T19:04:03.769Z,26.96
2022-08-18T19:07:30.941Z,26.22
2022-08-18T19:11:07.951Z,25.66
2022-08-18T19:14:07.458Z,25.72
2022-08-18T19:17:15.387Z,26.54
2022-08-18T19:20:16.900Z,27.04
2022-08-18T19:23:34.138Z,27.30
2022-08-18T19:26:51.294Z,27.51
2022-08-18T19:29:43.771Z,27.72
2022-08-18T19:32:48.140Z,27.63
2022-08-18T19:35:58.823Z,26.73
2022-08-18T19:39:02.726Z,25.92
2022-08-18T19:42:07.106Z,25.68
2022-08-18T19:45:36.643Z,26.35
2022-08-18T19:48:40.834Z,26.82
2022-08-18T19:51:42.487Z,27.05
2022-08-18T19:55:18.787Z,27.19
2022-08-18T19:58:18.912Z,27.28
2022-08-18T20:01:31.254Z,27.34
2022-08-18T20:04:43.756Z,27.42
2022-08-18T20:08:10.102Z,27.47
2022-08-18T20:11:41.843Z,27.51
2022-08-18T20:14:35.864Z,27.11
2022-08-18T20:17:25.715Z,26.21
2022-08-18T20:20:18.411Z,25.74
2022-08-18T20:23:37.047Z,26.17
2022-08-18T20:26:39.805Z,26.58
2022-08-18T20:29:36.492Z,26.87
2022-08-18T20:32:36.264Z,27.01
2022-08-18T20:35:32.809Z,27.01
2022-08-18T20:38:37.048Z,27.02
2022-08-18T20:41:29.900Z,27.18
2022-08-18T20:44:30.460Z,27.27
2022-08-18T20:47:40.040Z,27.32
2022-08-18T20:50:57.701Z,27.37
2022-08-18T20:54:25.199Z,27.41
2022-08-18T20:57:13.752Z,27.41
2022-08-18T21:00:16.249Z,27.44
2022-08-18T21:03:18.352Z,27.40
2022-08-18T21:06:07.779Z,27.37
2022-08-18T21:08:56.006Z,27.35
2022-08-18T21:11:48.481Z,27.34
2022-08-18T21:14:36.543Z,27.32
2022-08-18T21:17:28.380Z,27.31
2022-08-18T21:20:16.557Z,27.28
2022-08-18T21:23:12.317Z,27.26
2022-08-18T21:26:13.687Z,27.23
2022-08-18T21:29:12.688Z,27.21
2022-08-18T21:32:17.173Z,27.13
2022-08-18T21:35:29.991Z,27.04
2022-08-18T21:38:27.724Z,26.95
2022-08-18T21:41:19.214Z,26.89
2022-08-18T21:44:22.333Z,26.84
2022-08-18T21:47:33.001Z,26.79
2022-08-18T21:50:29.206Z,26.73
2022-08-18T21:53:28.435Z,26.69
2022-08-18T21:56:33.186Z,26.67
2022-08-18T21:59:21.982Z,26.65
2022-08-18T22:02:21.730Z,26.61
2022-08-18T22:05:12.292Z,26.57
2022-08-18T22:08:00.404Z,26.55
2022-08-18T22:12:01.512Z,26.54
2022-08-18T22:14:54.443Z,26.55
2022-08-18T22:17:56.414Z,26.60
2022-08-18T22:20:57.344Z,26.62
2022-08-18T22:24:05.630Z,26.63
2022-08-18T22:27:04.534Z,26.66
2022-08-18T22:30:06.511Z,26.65
2022-08-18T22:32:54.518Z,26.71
2022-08-18T22:35:45.254Z,26.72
2022-08-18T22:38:34.611Z,26.71
2022-08-18T22:41:23.321Z,26.72
2022-08-18T22:44:10.981Z,26.69
2022-08-18T22:46:58.954Z,26.64
2022-08-18T22:49:47.603Z,26.62
2022-08-18T22:52:47.667Z,26.55
2022-08-18T22:55:35.573Z,26.48
2022-08-18T22:58:28.003Z,26.47
2022-08-18T23:01:16.151Z,26.44
2022-08-18T23:04:05.142Z,26.40
2022-08-18T23:06:55.172Z,26.36
2022-08-18T23:09:43.004Z,26.35
2022-08-18T23:12:31.070Z,26.35
2022-08-18T23:15:21.987Z,26.33
2022-08-18T23:18:10.857Z,26.32
2022-08-18T23:20:59.767Z,26.32
2022-08-18T23:23:47.888Z,26.30
2022-08-18T23:26:36.396Z,26.27
2022-08-18T23:29:24.744Z,26.23
2022-08-18T23:32:13.494Z,26.24
2022-08-18T23:35:02.078Z,26.27
2022-08-18T23:37:49.869Z,26.29
2022-08-18T23:40:42.177Z,26.32
2022-08-18T23:43:30.363Z,26.37
2022-08-18T23:46:32.063Z,26.40
2022-08-18T23:49:20.264Z,26.42
2022-08-18T23:52:09.669Z,26.42
2022-08-18T23:54:57.435Z,26.42
2022-08-18T23:57:45.167Z,26.44
